Historyczne dane pomiarowe

Dodano dane terminowe – wersja testowa.

Dane z okresu 1951-2019

Wersja bazy: 1.34 [2019-03-16, lista zmian], aktualizacja planowana na 2019-04-15

Dane meteo z obszaru Polski uzyskane na podstawie danych udostępnionych przez Instytut Meteorologii i Gospodarki Wodnej – Państwowy Instytut Badawczy.

 

Wybierz Datę:    

       

TemperaturaWilgotnośćZachmurzenieWiatrCiśnienieWidzialnośćZjawiska
 Data    tng td wb rh cc ccl cl cm ch dir g1 g2 mslp ppp      
1999-07-17 00:00:00 11.5--- 10.8 11.195wxwxwxwx0wx--1021.9 979.0 0.0---wx
1999-07-17 01:00:00 10.7--- 10.0 10.395wxwxwx0wx--1022.2 979.2----wx
1999-07-17 02:00:00 10.1--- 9.4 9.795wxwxwxwx0wx--1022.4 979.3----wx
1999-07-17 03:00:00 8.7--- 8.5 8.699wxwxwxwx0wx--1022.6 979.3----wx
1999-07-17 04:00:00 9.4--- 9.0 9.298wxwxwxwx0wx--1022.7 979.5----wx
1999-07-17 05:00:00 10.7--- 10.2 10.496wxwxwx0wx--1022.7 979.7----wx
1999-07-17 06:00:00 12.6--- 11.2 11.891wxwxwxwx0wx--1022.4 979.7 0.0---wxw1
1999-07-17 07:00:00 15.5--- 12.4 13.782wxwxwxwx0wx--1022.5 980.2----wx
1999-07-17 08:00:00 17.7--- 10.8 13.764wxwxwxwx0wx--1022.0 980.0----wx
1999-07-17 09:00:00 19.4--- 10.2 14.155wxwxwxwx0wx--1021.5 979.8----wx
1999-07-17 10:00:00 20.3--- 9.4 14.150wxwxwxwx0wx--1021.2 979.6----wx
1999-07-17 11:00:00 21.6--- 9.6 14.746wxwxwxwxwx0wx--1020.8 979.4----wx
1999-07-17 12:00:00 22.3--- 9.0 14.743wxwxwxwx0wx--1020.5 979.2 0.0---wx
1999-07-17 13:00:00 21.9--- 8.9 14.543wxwxwxwx0wx--1020.4 979.1----wx
1999-07-17 14:00:00 23.4--- 10.7 15.945wxwxwxwx0wx--1019.9 978.8----wx
1999-07-17 15:00:00 22.7--- 10.0 15.345wxwxwxwx1wx--1019.8 978.6----wx
1999-07-17 16:00:00 23.0--- 11.0 15.947wxwxwx1wx--1019.8 978.6----wx
1999-07-17 17:00:00 22.9--- 10.5 15.645wxwxwx0wx--1019.7 978.5----wx
1999-07-17 18:00:00 22.0--- 12.0 16.053wxwxwx1wx--1019.8 978.5 0.0---wx
1999-07-17 19:00:00 16.9--- 14.1 15.284wxwxwx1wx--1020.7 978.7----wx
1999-07-17 20:00:00 15.9--- 12.7 14.081wxwxwx0wx--1021.3 979.1----wx
1999-07-17 21:00:00 14.0--- 12.5 13.190wxwx0wx--1021.7 979.2----wx
1999-07-17 22:00:00 12.9--- 11.9 12.393wxwx0wx--1022.1 979.4----wx
1999-07-17 23:00:00 12.3--- 11.1 11.692wxwx0wx--1022.2 979.4----wx

 

Źródłem pochodzenia danych jest Instytut Meteorologii i Gospodarki Wodnej – Państwowy Instytut Badawczy. Dane Instytutu Meteorologii i Gospodarki Wodnej – Państwowego Instytutu Badawczego zostały przetworzone.

Dane źródłowe można odnaleźć na stronie https://dane.imgw.pl